EGFF/CWL METAR and TAF weather

Enter ICAO airport designator
Station Type Date Time Source
EGFF METAR 2019/12/13 01:20 UTC NOAA

EGFF 130120Z AUTO 29027G39KT 9999 BKN026 BKN032 07/03 Q0975


Station Type Date Time Source
EGFF Decoded METAR 2019/12/13 01:20 UTC NOAA

Cardiff-Wales Airport, United Kingdom (EGFF) 51-24N 003-21W 0M
Dec 12, 2019 - 08:20 PM EST / 2019.12.13 0120 UTC
Wind: from the WNW (290 degrees) at 31 MPH (27 KT) gusting to 45 MPH (39 KT):0
Visibility: greater than 7 mile(s):0
Sky conditions: mostly cloudy
Temperature: 44 F (7 C)
Dew Point: 37 F (3 C)
Relative Humidity: 75%
Pressure (altimeter): 28.79 in. Hg (0975 hPa)
ob: EGFF 130120Z AUTO 29027G39KT 9999 BKN026 BKN032 07/03 Q0975
cycle: 1

Station Type Date Time Source
EGFF TAF 2019/12/12 18:59 UTC NOAA

TAF COR EGFF 121757Z 1218/1318 26012KT 9999 FEW015 SCT025
TEMPO 1218/1220 27017G27KT
TEMPO 1218/1223 7000 SHRA BKN014 PROB40
TEMPO 1218/1223 3000 +SHRA SHGS BKN009 BKN015CB
BECMG 1220/1223 29020G35KT PROB30
TEMPO 1223/1312 29030G43KT 7000 SHRA

Example: see airport list